sensor_id;sensor_type;location;lat;lon;timestamp;temperature;humidity
1592;DHT22;789;51.612;7.510;2023-04-25T00:00:28;8.30;1.00
1592;DHT22;789;51.612;7.510;2023-04-25T00:02:55;8.30;1.00
1592;DHT22;789;51.612;7.510;2023-04-25T00:05:22;8.30;1.00
1592;DHT22;789;51.612;7.510;2023-04-25T00:07:49;8.50;1.00
1592;DHT22;789;51.612;7.510;2023-04-25T00:10:16;8.30;1.00
1592;DHT22;789;51.612;7.510;2023-04-25T00:12:43;8.30;1.00
1592;DHT22;789;51.612;7.510;2023-04-25T00:15:12;8.30;1.00
1592;DHT22;789;51.612;7.510;2023-04-25T00:17:39;8.30;1.00
1592;DHT22;789;51.612;7.510;2023-04-25T00:20:07;8.40;1.00
1592;DHT22;789;51.612;7.510;2023-04-25T00:22:35;8.40;1.00
1592;DHT22;789;51.612;7.510;2023-04-25T00:25:03;8.50;1.00
1592;DHT22;789;51.612;7.510;2023-04-25T00:27:32;8.50;1.00
1592;DHT22;789;51.612;7.510;2023-04-25T00:29:59;8.60;1.00
1592;DHT22;789;51.612;7.510;2023-04-25T00:32:27;8.60;1.00
1592;DHT22;789;51.612;7.510;2023-04-25T00:34:54;8.70;1.00
1592;DHT22;789;51.612;7.510;2023-04-25T00:37:23;8.60;1.00
1592;DHT22;789;51.612;7.510;2023-04-25T00:39:50;8.60;1.00
1592;DHT22;789;51.612;7.510;2023-04-25T00:42:19;8.60;1.00
1592;DHT22;789;51.612;7.510;2023-04-25T00:44:46;8.60;1.00
1592;DHT22;789;51.612;7.510;2023-04-25T00:47:15;8.60;1.00
1592;DHT22;789;51.612;7.510;2023-04-25T00:49:43;8.60;1.00
1592;DHT22;789;51.612;7.510;2023-04-25T00:52:10;8.60;1.00
1592;DHT22;789;51.612;7.510;2023-04-25T00:54:37;8.70;1.00
1592;DHT22;789;51.612;7.510;2023-04-25T00:57:04;8.70;1.00
1592;DHT22;789;51.612;7.510;2023-04-25T00:59:34;8.70;1.00
1592;DHT22;789;51.612;7.510;2023-04-25T01:02:03;8.70;1.00
1592;DHT22;789;51.612;7.510;2023-04-25T01:04:30;8.70;1.00
1592;DHT22;789;51.612;7.510;2023-04-25T01:06:59;8.80;1.00
1592;DHT22;789;51.612;7.510;2023-04-25T01:09:28;8.80;1.00
1592;DHT22;789;51.612;7.510;2023-04-25T01:11:56;8.80;1.00
1592;DHT22;789;51.612;7.510;2023-04-25T01:14:23;8.80;1.00
1592;DHT22;789;51.612;7.510;2023-04-25T01:16:50;8.90;1.00
1592;DHT22;789;51.612;7.510;2023-04-25T01:19:18;8.90;1.00
1592;DHT22;789;51.612;7.510;2023-04-25T01:21:47;8.90;1.00
1592;DHT22;789;51.612;7.510;2023-04-25T01:24:14;9.00;1.00
1592;DHT22;789;51.612;7.510;2023-04-25T01:26:41;8.90;1.00
1592;DHT22;789;51.612;7.510;2023-04-25T01:29:10;8.90;1.00
1592;DHT22;789;51.612;7.510;2023-04-25T01:31:37;8.90;1.00
1592;DHT22;789;51.612;7.510;2023-04-25T01:34:04;8.90;1.00
1592;DHT22;789;51.612;7.510;2023-04-25T01:36:31;8.90;1.00
1592;DHT22;789;51.612;7.510;2023-04-25T01:39:02;9.00;1.00
1592;DHT22;789;51.612;7.510;2023-04-25T01:41:29;8.90;1.00
1592;DHT22;789;51.612;7.510;2023-04-25T01:43:56;8.90;1.00
1592;DHT22;789;51.612;7.510;2023-04-25T01:46:23;8.90;1.00
1592;DHT22;789;51.612;7.510;2023-04-25T01:48:51;8.90;1.00
1592;DHT22;789;51.612;7.510;2023-04-25T01:51:18;8.90;1.00
1592;DHT22;789;51.612;7.510;2023-04-25T01:53:45;8.90;1.00
1592;DHT22;789;51.612;7.510;2023-04-25T01:56:13;9.00;1.00
1592;DHT22;789;51.612;7.510;2023-04-25T01:58:40;8.90;1.00
1592;DHT22;789;51.612;7.510;2023-04-25T02:01:07;8.90;1.00
1592;DHT22;789;51.612;7.510;2023-04-25T02:03:34;8.90;1.00
1592;DHT22;789;51.612;7.510;2023-04-25T02:06:01;9.00;1.00
1592;DHT22;789;51.612;7.510;2023-04-25T02:08:28;9.00;1.00
1592;DHT22;789;51.612;7.510;2023-04-25T02:10:55;9.00;1.00
1592;DHT22;789;51.612;7.510;2023-04-25T02:13:23;9.00;1.00
1592;DHT22;789;51.612;7.510;2023-04-25T02:15:50;9.00;1.00
1592;DHT22;789;51.612;7.510;2023-04-25T02:18:17;8.90;1.00
1592;DHT22;789;51.612;7.510;2023-04-25T02:20:45;8.90;1.00
1592;DHT22;789;51.612;7.510;2023-04-25T02:23:12;8.90;1.00
1592;DHT22;789;51.612;7.510;2023-04-25T02:25:40;8.90;1.00
1592;DHT22;789;51.612;7.510;2023-04-25T02:28:07;8.90;1.00
1592;DHT22;789;51.612;7.510;2023-04-25T02:30:35;8.90;1.00
1592;DHT22;789;51.612;7.510;2023-04-25T02:33:02;8.90;1.00
1592;DHT22;789;51.612;7.510;2023-04-25T02:35:29;8.90;1.00
1592;DHT22;789;51.612;7.510;2023-04-25T02:37:56;8.90;1.00
1592;DHT22;789;51.612;7.510;2023-04-25T02:40:23;8.90;1.00
1592;DHT22;789;51.612;7.510;2023-04-25T02:42:50;9.00;1.00
1592;DHT22;789;51.612;7.510;2023-04-25T02:45:17;9.00;1.00
1592;DHT22;789;51.612;7.510;2023-04-25T02:47:45;9.00;1.00
1592;DHT22;789;51.612;7.510;2023-04-25T02:50:12;9.00;1.00
1592;DHT22;789;51.612;7.510;2023-04-25T02:52:38;8.90;1.00
1592;DHT22;789;51.612;7.510;2023-04-25T02:55:06;8.90;1.00
1592;DHT22;789;51.612;7.510;2023-04-25T02:57:33;8.90;1.00
1592;DHT22;789;51.612;7.510;2023-04-25T03:00:00;8.90;1.00
1592;DHT22;789;51.612;7.510;2023-04-25T03:02:27;8.80;1.00
1592;DHT22;789;51.612;7.510;2023-04-25T03:04:58;8.90;1.00
1592;DHT22;789;51.612;7.510;2023-04-25T03:07:25;8.80;1.00
1592;DHT22;789;51.612;7.510;2023-04-25T03:09:51;8.70;1.00
1592;DHT22;789;51.612;7.510;2023-04-25T03:12:19;8.70;1.00
1592;DHT22;789;51.612;7.510;2023-04-25T03:14:45;8.70;1.00
1592;DHT22;789;51.612;7.510;2023-04-25T03:17:12;8.70;1.00
1592;DHT22;789;51.612;7.510;2023-04-25T03:19:39;8.70;1.00
1592;DHT22;789;51.612;7.510;2023-04-25T03:22:07;8.50;1.00
1592;DHT22;789;51.612;7.510;2023-04-25T03:24:34;8.50;1.00
1592;DHT22;789;51.612;7.510;2023-04-25T03:27:02;8.50;1.00
1592;DHT22;789;51.612;7.510;2023-04-25T03:29:29;8.60;1.00
1592;DHT22;789;51.612;7.510;2023-04-25T03:31:55;8.60;1.00
1592;DHT22;789;51.612;7.510;2023-04-25T03:34:22;8.50;1.00
1592;DHT22;789;51.612;7.510;2023-04-25T03:36:49;8.50;1.00
1592;DHT22;789;51.612;7.510;2023-04-25T03:39:17;8.40;1.00
1592;DHT22;789;51.612;7.510;2023-04-25T03:41:44;8.40;1.00
1592;DHT22;789;51.612;7.510;2023-04-25T03:44:11;8.40;1.00
1592;DHT22;789;51.612;7.510;2023-04-25T03:46:38;8.40;1.00
1592;DHT22;789;51.612;7.510;2023-04-25T03:49:06;8.50;1.00
1592;DHT22;789;51.612;7.510;2023-04-25T03:51:34;8.50;1.00
1592;DHT22;789;51.612;7.510;2023-04-25T03:54:01;8.50;1.00
1592;DHT22;789;51.612;7.510;2023-04-25T03:56:30;8.50;1.00
1592;DHT22;789;51.612;7.510;2023-04-25T03:58:56;8.50;1.00
1592;DHT22;789;51.612;7.510;2023-04-25T04:01:23;8.50;1.00
1592;DHT22;789;51.612;7.510;2023-04-25T04:03:50;8.50;1.00
1592;DHT22;789;51.612;7.510;2023-04-25T04:06:17;8.50;1.00
1592;DHT22;789;51.612;7.510;2023-04-25T04:08:46;8.50;1.00
1592;DHT22;789;51.612;7.510;2023-04-25T04:11:13;8.50;1.00
1592;DHT22;789;51.612;7.510;2023-04-25T04:13:41;8.50;1.00
1592;DHT22;789;51.612;7.510;2023-04-25T04:16:08;8.50;1.00
1592;DHT22;789;51.612;7.510;2023-04-25T04:18:35;8.50;1.00
1592;DHT22;789;51.612;7.510;2023-04-25T04:21:02;8.60;1.00
1592;DHT22;789;51.612;7.510;2023-04-25T04:23:28;8.60;1.00
1592;DHT22;789;51.612;7.510;2023-04-25T04:25:55;8.50;1.00
1592;DHT22;789;51.612;7.510;2023-04-25T04:28:22;8.50;1.00
1592;DHT22;789;51.612;7.510;2023-04-25T04:30:52;8.40;1.00
1592;DHT22;789;51.612;7.510;2023-04-25T04:33:19;8.40;1.00
1592;DHT22;789;51.612;7.510;2023-04-25T04:35:46;8.40;1.00
1592;DHT22;789;51.612;7.510;2023-04-25T04:38:13;8.40;1.00
1592;DHT22;789;51.612;7.510;2023-04-25T04:40:41;8.40;1.00
1592;DHT22;789;51.612;7.510;2023-04-25T04:43:09;8.40;1.00
1592;DHT22;789;51.612;7.510;2023-04-25T04:45:36;8.40;1.00
1592;DHT22;789;51.612;7.510;2023-04-25T04:48:06;8.40;1.00
1592;DHT22;789;51.612;7.510;2023-04-25T04:50:34;8.50;1.00
1592;DHT22;789;51.612;7.510;2023-04-25T04:53:02;8.50;1.00
1592;DHT22;789;51.612;7.510;2023-04-25T04:55:28;8.50;1.00
1592;DHT22;789;51.612;7.510;2023-04-25T04:57:55;8.50;1.00
1592;DHT22;789;51.612;7.510;2023-04-25T05:00:22;8.50;1.00
1592;DHT22;789;51.612;7.510;2023-04-25T05:02:49;8.40;1.00
1592;DHT22;789;51.612;7.510;2023-04-25T05:05:17;8.40;1.00
1592;DHT22;789;51.612;7.510;2023-04-25T05:07:44;8.40;1.00
1592;DHT22;789;51.612;7.510;2023-04-25T05:10:11;8.40;1.00
1592;DHT22;789;51.612;7.510;2023-04-25T05:12:38;8.60;1.00
1592;DHT22;789;51.612;7.510;2023-04-25T05:15:05;8.60;1.00
1592;DHT22;789;51.612;7.510;2023-04-25T05:17:32;8.50;1.00
1592;DHT22;789;51.612;7.510;2023-04-25T05:19:59;8.50;1.00
1592;DHT22;789;51.612;7.510;2023-04-25T05:22:27;8.50;1.00
1592;DHT22;789;51.612;7.510;2023-04-25T05:24:54;8.60;1.00
1592;DHT22;789;51.612;7.510;2023-04-25T05:27:21;8.60;1.00
1592;DHT22;789;51.612;7.510;2023-04-25T05:29:47;8.60;1.00
1592;DHT22;789;51.612;7.510;2023-04-25T05:32:14;8.60;1.00
1592;DHT22;789;51.612;7.510;2023-04-25T05:34:43;8.60;1.00
1592;DHT22;789;51.612;7.510;2023-04-25T05:37:11;8.70;1.00
1592;DHT22;789;51.612;7.510;2023-04-25T05:39:39;8.60;1.00
1592;DHT22;789;51.612;7.510;2023-04-25T05:42:06;8.40;1.00
1592;DHT22;789;51.612;7.510;2023-04-25T05:44:32;8.70;1.00
1592;DHT22;789;51.612;7.510;2023-04-25T05:46:59;8.90;1.00
1592;DHT22;789;51.612;7.510;2023-04-25T05:49:26;8.90;1.00
1592;DHT22;789;51.612;7.510;2023-04-25T05:51:53;9.00;1.00
1592;DHT22;789;51.612;7.510;2023-04-25T05:54:20;9.10;1.00
1592;DHT22;789;51.612;7.510;2023-04-25T05:56:48;9.20;1.00
1592;DHT22;789;51.612;7.510;2023-04-25T05:59:15;9.20;1.00
1592;DHT22;789;51.612;7.510;2023-04-25T06:01:42;9.10;1.00
1592;DHT22;789;51.612;7.510;2023-04-25T06:04:08;9.10;1.00
1592;DHT22;789;51.612;7.510;2023-04-25T06:06:35;9.10;1.00
1592;DHT22;789;51.612;7.510;2023-04-25T06:09:02;9.10;1.00
1592;DHT22;789;51.612;7.510;2023-04-25T06:11:29;9.10;1.00
1592;DHT22;789;51.612;7.510;2023-04-25T06:13:58;9.30;1.00
1592;DHT22;789;51.612;7.510;2023-04-25T06:16:24;9.40;1.00
1592;DHT22;789;51.612;7.510;2023-04-25T06:18:51;9.50;1.00
1592;DHT22;789;51.612;7.510;2023-04-25T06:21:18;9.60;1.00
1592;DHT22;789;51.612;7.510;2023-04-25T06:23:45;9.70;1.00
1592;DHT22;789;51.612;7.510;2023-04-25T06:26:12;9.70;1.00
1592;DHT22;789;51.612;7.510;2023-04-25T06:28:41;9.80;1.00
1592;DHT22;789;51.612;7.510;2023-04-25T06:31:10;10.00;1.00
1592;DHT22;789;51.612;7.510;2023-04-25T06:33:37;10.00;1.00
1592;DHT22;789;51.612;7.510;2023-04-25T06:36:04;10.30;1.00
1592;DHT22;789;51.612;7.510;2023-04-25T06:38:31;10.30;1.00
1592;DHT22;789;51.612;7.510;2023-04-25T06:41:00;10.60;1.00
1592;DHT22;789;51.612;7.510;2023-04-25T06:43:26;10.70;1.00
1592;DHT22;789;51.612;7.510;2023-04-25T06:45:58;10.80;1.00
1592;DHT22;789;51.612;7.510;2023-04-25T06:48:26;11.00;1.00
1592;DHT22;789;51.612;7.510;2023-04-25T06:50:54;11.10;1.00
1592;DHT22;789;51.612;7.510;2023-04-25T06:53:21;11.40;1.00
1592;DHT22;789;51.612;7.510;2023-04-25T06:55:48;11.50;1.00
1592;DHT22;789;51.612;7.510;2023-04-25T06:58:15;11.60;1.00
1592;DHT22;789;51.612;7.510;2023-04-25T07:00:42;11.70;1.00
1592;DHT22;789;51.612;7.510;2023-04-25T07:03:09;11.90;1.00
1592;DHT22;789;51.612;7.510;2023-04-25T07:05:37;11.90;1.00
1592;DHT22;789;51.612;7.510;2023-04-25T07:08:04;12.10;1.00
1592;DHT22;789;51.612;7.510;2023-04-25T07:10:31;12.20;1.00
1592;DHT22;789;51.612;7.510;2023-04-25T07:12:58;12.40;1.00
1592;DHT22;789;51.612;7.510;2023-04-25T07:15:25;12.40;1.00
1592;DHT22;789;51.612;7.510;2023-04-25T07:17:51;12.50;1.00
1592;DHT22;789;51.612;7.510;2023-04-25T07:20:18;12.50;1.00
1592;DHT22;789;51.612;7.510;2023-04-25T07:22:46;12.50;1.00
1592;DHT22;789;51.612;7.510;2023-04-25T07:25:13;12.40;1.00
1592;DHT22;789;51.612;7.510;2023-04-25T07:27:40;12.20;1.00
1592;DHT22;789;51.612;7.510;2023-04-25T07:30:08;12.30;1.00
1592;DHT22;789;51.612;7.510;2023-04-25T07:32:35;12.50;1.00
1592;DHT22;789;51.612;7.510;2023-04-25T07:35:02;13.00;1.00
1592;DHT22;789;51.612;7.510;2023-04-25T07:37:31;13.70;1.00
1592;DHT22;789;51.612;7.510;2023-04-25T07:40:02;14.10;1.00
1592;DHT22;789;51.612;7.510;2023-04-25T07:42:32;14.40;1.00
1592;DHT22;789;51.612;7.510;2023-04-25T07:45:00;14.40;1.00
1592;DHT22;789;51.612;7.510;2023-04-25T07:47:28;14.50;1.00
1592;DHT22;789;51.612;7.510;2023-04-25T07:49:55;14.30;1.00
1592;DHT22;789;51.612;7.510;2023-04-25T07:52:23;14.10;1.00
1592;DHT22;789;51.612;7.510;2023-04-25T07:54:50;13.90;1.00
1592;DHT22;789;51.612;7.510;2023-04-25T07:57:19;13.70;1.00
1592;DHT22;789;51.612;7.510;2023-04-25T07:59:46;13.40;1.00
1592;DHT22;789;51.612;7.510;2023-04-25T08:02:14;13.20;1.00
1592;DHT22;789;51.612;7.510;2023-04-25T08:04:41;13.10;1.00
1592;DHT22;789;51.612;7.510;2023-04-25T08:07:08;12.80;1.00
1592;DHT22;789;51.612;7.510;2023-04-25T08:09:36;12.80;1.00
1592;DHT22;789;51.612;7.510;2023-04-25T08:12:04;12.80;1.00
1592;DHT22;789;51.612;7.510;2023-04-25T08:14:32;12.90;1.00
1592;DHT22;789;51.612;7.510;2023-04-25T08:17:01;12.90;1.00
1592;DHT22;789;51.612;7.510;2023-04-25T08:19:28;13.00;1.00
1592;DHT22;789;51.612;7.510;2023-04-25T08:21:55;13.00;1.00
1592;DHT22;789;51.612;7.510;2023-04-25T08:24:22;13.20;1.00
1592;DHT22;789;51.612;7.510;2023-04-25T08:26:51;13.60;1.00
1592;DHT22;789;51.612;7.510;2023-04-25T08:29:18;14.00;1.00
1592;DHT22;789;51.612;7.510;2023-04-25T08:31:50;14.40;1.00
1592;DHT22;789;51.612;7.510;2023-04-25T08:34:18;14.60;1.00
1592;DHT22;789;51.612;7.510;2023-04-25T08:36:45;14.50;1.00
1592;DHT22;789;51.612;7.510;2023-04-25T08:39:12;14.40;1.00
1592;DHT22;789;51.612;7.510;2023-04-25T08:41:40;14.40;1.00
1592;DHT22;789;51.612;7.510;2023-04-25T08:44:10;14.50;1.00
1592;DHT22;789;51.612;7.510;2023-04-25T08:46:38;14.80;1.00
1592;DHT22;789;51.612;7.510;2023-04-25T08:49:08;15.30;1.00
1592;DHT22;789;51.612;7.510;2023-04-25T08:51:38;15.80;1.00
1592;DHT22;789;51.612;7.510;2023-04-25T08:54:09;16.00;1.00
1592;DHT22;789;51.612;7.510;2023-04-25T08:56:37;15.90;1.00
1592;DHT22;789;51.612;7.510;2023-04-25T08:59:05;15.80;1.00
1592;DHT22;789;51.612;7.510;2023-04-25T09:01:36;15.60;1.00
1592;DHT22;789;51.612;7.510;2023-04-25T09:04:03;15.40;1.00
1592;DHT22;789;51.612;7.510;2023-04-25T09:06:32;15.30;1.00
1592;DHT22;789;51.612;7.510;2023-04-25T09:09:02;15.70;1.00
1592;DHT22;789;51.612;7.510;2023-04-25T09:11:32;16.20;1.00
1592;DHT22;789;51.612;7.510;2023-04-25T09:14:15;16.70;1.00
1592;DHT22;789;51.612;7.510;2023-04-25T09:16:58;16.60;1.00
1592;DHT22;789;51.612;7.510;2023-04-25T09:19:26;16.20;1.00
1592;DHT22;789;51.612;7.510;2023-04-25T09:21:56;15.80;1.00
1592;DHT22;789;51.612;7.510;2023-04-25T09:24:38;15.20;1.00
1592;DHT22;789;51.612;7.510;2023-04-25T09:27:06;14.80;1.00
1592;DHT22;789;51.612;7.510;2023-04-25T09:29:36;14.30;1.00
1592;DHT22;789;51.612;7.510;2023-04-25T09:32:17;13.90;1.00
1592;DHT22;789;51.612;7.510;2023-04-25T09:34:48;13.70;1.00
1592;DHT22;789;51.612;7.510;2023-04-25T09:37:22;13.50;1.00
1592;DHT22;789;51.612;7.510;2023-04-25T09:39:52;13.30;1.00
1592;DHT22;789;51.612;7.510;2023-04-25T09:42:23;13.00;1.00
1592;DHT22;789;51.612;7.510;2023-04-25T09:44:51;13.00;1.00
1592;DHT22;789;51.612;7.510;2023-04-25T09:47:18;12.90;1.00
1592;DHT22;789;51.612;7.510;2023-04-25T09:49:48;13.00;1.00
1592;DHT22;789;51.612;7.510;2023-04-25T09:52:16;13.20;1.00
1592;DHT22;789;51.612;7.510;2023-04-25T09:54:45;13.60;1.00
1592;DHT22;789;51.612;7.510;2023-04-25T09:57:14;14.20;1.00
1592;DHT22;789;51.612;7.510;2023-04-25T09:59:45;15.00;1.00
1592;DHT22;789;51.612;7.510;2023-04-25T10:02:14;16.00;1.00
1592;DHT22;789;51.612;7.510;2023-04-25T10:04:44;17.20;1.00
1592;DHT22;789;51.612;7.510;2023-04-25T10:07:14;18.40;1.00
1592;DHT22;789;51.612;7.510;2023-04-25T10:09:41;20.40;1.00
1592;DHT22;789;51.612;7.510;2023-04-25T10:12:12;22.40;1.00
1592;DHT22;789;51.612;7.510;2023-04-25T10:14:39;24.50;1.00
1592;DHT22;789;51.612;7.510;2023-04-25T10:17:07;25.70;1.00
1592;DHT22;789;51.612;7.510;2023-04-25T10:19:37;25.50;1.00
1592;DHT22;789;51.612;7.510;2023-04-25T10:22:07;24.80;1.00
1592;DHT22;789;51.612;7.510;2023-04-25T10:24:35;24.30;1.00
1592;DHT22;789;51.612;7.510;2023-04-25T10:27:02;23.00;1.00
1592;DHT22;789;51.612;7.510;2023-04-25T10:29:30;21.70;1.00
1592;DHT22;789;51.612;7.510;2023-04-25T10:32:00;20.50;1.00
1592;DHT22;789;51.612;7.510;2023-04-25T10:34:38;19.40;1.00
1592;DHT22;789;51.612;7.510;2023-04-25T10:37:10;18.30;1.00
1592;DHT22;789;51.612;7.510;2023-04-25T10:39:46;17.30;1.00
1592;DHT22;789;51.612;7.510;2023-04-25T10:42:12;16.50;1.00
1592;DHT22;789;51.612;7.510;2023-04-25T10:44:39;15.90;1.00
1592;DHT22;789;51.612;7.510;2023-04-25T10:47:07;15.60;1.00
1592;DHT22;789;51.612;7.510;2023-04-25T10:49:35;15.20;1.00
1592;DHT22;789;51.612;7.510;2023-04-25T10:52:12;15.00;1.00
1592;DHT22;789;51.612;7.510;2023-04-25T10:54:41;14.70;1.00
1592;DHT22;789;51.612;7.510;2023-04-25T10:57:26;14.30;1.00
1592;DHT22;789;51.612;7.510;2023-04-25T10:59:54;13.80;1.00
1592;DHT22;789;51.612;7.510;2023-04-25T11:02:21;13.40;1.00
1592;DHT22;789;51.612;7.510;2023-04-25T11:04:54;13.10;1.00
1592;DHT22;789;51.612;7.510;2023-04-25T11:07:29;12.70;1.00
1592;DHT22;789;51.612;7.510;2023-04-25T11:09:58;12.30;1.00
1592;DHT22;789;51.612;7.510;2023-04-25T11:12:30;12.00;1.00
1592;DHT22;789;51.612;7.510;2023-04-25T11:15:00;12.00;1.00
1592;DHT22;789;51.612;7.510;2023-04-25T11:17:28;12.00;1.00
1592;DHT22;789;51.612;7.510;2023-04-25T11:19:55;12.00;1.00
1592;DHT22;789;51.612;7.510;2023-04-25T11:22:23;12.10;1.00
1592;DHT22;789;51.612;7.510;2023-04-25T11:24:50;12.00;1.00
1592;DHT22;789;51.612;7.510;2023-04-25T11:27:17;12.00;1.00
1592;DHT22;789;51.612;7.510;2023-04-25T11:29:45;12.10;1.00
1592;DHT22;789;51.612;7.510;2023-04-25T11:32:15;12.30;1.00
1592;DHT22;789;51.612;7.510;2023-04-25T11:34:44;12.50;1.00
1592;DHT22;789;51.612;7.510;2023-04-25T11:37:12;12.90;1.00
1592;DHT22;789;51.612;7.510;2023-04-25T11:39:42;13.50;1.00
1592;DHT22;789;51.612;7.510;2023-04-25T11:42:10;13.90;1.00
1592;DHT22;789;51.612;7.510;2023-04-25T11:44:38;14.50;1.00
1592;DHT22;789;51.612;7.510;2023-04-25T11:47:06;15.60;1.00
1592;DHT22;789;51.612;7.510;2023-04-25T11:49:33;17.20;1.00
1592;DHT22;789;51.612;7.510;2023-04-25T11:52:01;18.80;1.00
1592;DHT22;789;51.612;7.510;2023-04-25T11:54:28;19.90;1.00
1592;DHT22;789;51.612;7.510;2023-04-25T11:56:55;20.00;1.00
1592;DHT22;789;51.612;7.510;2023-04-25T11:59:23;19.90;1.00
1592;DHT22;789;51.612;7.510;2023-04-25T12:01:50;19.60;1.00
1592;DHT22;789;51.612;7.510;2023-04-25T12:04:20;18.90;1.00
1592;DHT22;789;51.612;7.510;2023-04-25T12:06:49;18.40;1.00
1592;DHT22;789;51.612;7.510;2023-04-25T12:09:17;17.80;1.00
1592;DHT22;789;51.612;7.510;2023-04-25T12:11:46;17.40;1.00
1592;DHT22;789;51.612;7.510;2023-04-25T12:14:20;17.00;1.00
1592;DHT22;789;51.612;7.510;2023-04-25T12:16:48;16.80;1.00
1592;DHT22;789;51.612;7.510;2023-04-25T12:19:17;16.80;1.00
1592;DHT22;789;51.612;7.510;2023-04-25T12:21:46;16.80;1.00
1592;DHT22;789;51.612;7.510;2023-04-25T12:24:14;16.90;1.00
1592;DHT22;789;51.612;7.510;2023-04-25T12:26:51;17.00;1.00
1592;DHT22;789;51.612;7.510;2023-04-25T12:29:20;17.00;1.00
1592;DHT22;789;51.612;7.510;2023-04-25T12:31:47;17.00;1.00
1592;DHT22;789;51.612;7.510;2023-04-25T12:34:16;16.90;1.00
1592;DHT22;789;51.612;7.510;2023-04-25T12:36:48;16.70;1.00
1592;DHT22;789;51.612;7.510;2023-04-25T12:39:15;16.40;1.00
1592;DHT22;789;51.612;7.510;2023-04-25T12:41:43;16.20;1.00
1592;DHT22;789;51.612;7.510;2023-04-25T12:44:10;16.00;1.00
1592;DHT22;789;51.612;7.510;2023-04-25T12:46:43;15.90;1.00
1592;DHT22;789;51.612;7.510;2023-04-25T12:49:10;15.40;1.00
1592;DHT22;789;51.612;7.510;2023-04-25T12:51:37;15.00;1.00
1592;DHT22;789;51.612;7.510;2023-04-25T12:54:06;14.70;1.00
1592;DHT22;789;51.612;7.510;2023-04-25T12:56:33;14.50;1.00
1592;DHT22;789;51.612;7.510;2023-04-25T12:59:02;14.40;1.00
1592;DHT22;789;51.612;7.510;2023-04-25T13:01:29;14.30;1.00
1592;DHT22;789;51.612;7.510;2023-04-25T13:03:57;14.40;1.00
1592;DHT22;789;51.612;7.510;2023-04-25T13:06:24;14.50;1.00
1592;DHT22;789;51.612;7.510;2023-04-25T13:08:51;14.70;1.00
1592;DHT22;789;51.612;7.510;2023-04-25T13:11:19;14.80;1.00
1592;DHT22;789;51.612;7.510;2023-04-25T13:13:46;14.90;1.00
1592;DHT22;789;51.612;7.510;2023-04-25T13:16:13;14.90;1.00
1592;DHT22;789;51.612;7.510;2023-04-25T13:18:40;14.90;1.00
1592;DHT22;789;51.612;7.510;2023-04-25T13:21:07;14.80;1.00
1592;DHT22;789;51.612;7.510;2023-04-25T13:23:36;14.70;1.00
1592;DHT22;789;51.612;7.510;2023-04-25T13:26:02;14.60;1.00
1592;DHT22;789;51.612;7.510;2023-04-25T13:28:33;14.60;1.00
1592;DHT22;789;51.612;7.510;2023-04-25T13:30:59;14.60;1.00
1592;DHT22;789;51.612;7.510;2023-04-25T13:33:26;14.50;1.00
1592;DHT22;789;51.612;7.510;2023-04-25T13:35:53;14.50;1.00
1592;DHT22;789;51.612;7.510;2023-04-25T13:38:23;14.50;1.00
1592;DHT22;789;51.612;7.510;2023-04-25T13:40:51;14.30;1.00
1592;DHT22;789;51.612;7.510;2023-04-25T13:43:19;14.40;1.00
1592;DHT22;789;51.612;7.510;2023-04-25T13:45:47;14.00;1.00
1592;DHT22;789;51.612;7.510;2023-04-25T13:48:14;13.60;1.00
1592;DHT22;789;51.612;7.510;2023-04-25T13:50:41;13.30;1.00
1592;DHT22;789;51.612;7.510;2023-04-25T13:53:08;13.00;1.00
1592;DHT22;789;51.612;7.510;2023-04-25T13:55:36;12.70;1.00
1592;DHT22;789;51.612;7.510;2023-04-25T13:58:04;12.50;1.00
1592;DHT22;789;51.612;7.510;2023-04-25T14:00:34;12.40;1.00
1592;DHT22;789;51.612;7.510;2023-04-25T14:03:04;12.20;1.00
1592;DHT22;789;51.612;7.510;2023-04-25T14:05:33;12.20;1.00
1592;DHT22;789;51.612;7.510;2023-04-25T14:08:04;12.20;1.00
1592;DHT22;789;51.612;7.510;2023-04-25T14:10:34;12.40;1.00
1592;DHT22;789;51.612;7.510;2023-04-25T14:13:01;12.50;1.00
1592;DHT22;789;51.612;7.510;2023-04-25T14:15:29;12.80;1.00
1592;DHT22;789;51.612;7.510;2023-04-25T14:17:55;13.00;1.00
1592;DHT22;789;51.612;7.510;2023-04-25T14:20:25;13.20;1.00
1592;DHT22;789;51.612;7.510;2023-04-25T14:22:52;13.80;1.00
1592;DHT22;789;51.612;7.510;2023-04-25T14:25:20;13.70;1.00
1592;DHT22;789;51.612;7.510;2023-04-25T14:27:48;13.90;1.00
1592;DHT22;789;51.612;7.510;2023-04-25T14:30:16;14.00;1.00
1592;DHT22;789;51.612;7.510;2023-04-25T14:32:44;14.10;1.00
1592;DHT22;789;51.612;7.510;2023-04-25T14:35:11;14.20;1.00
1592;DHT22;789;51.612;7.510;2023-04-25T14:37:40;14.20;1.00
1592;DHT22;789;51.612;7.510;2023-04-25T14:40:10;14.20;1.00
1592;DHT22;789;51.612;7.510;2023-04-25T14:42:38;14.00;1.00
1592;DHT22;789;51.612;7.510;2023-04-25T14:45:06;14.10;1.00
1592;DHT22;789;51.612;7.510;2023-04-25T14:47:36;14.00;1.00
1592;DHT22;789;51.612;7.510;2023-04-25T14:50:04;13.90;1.00
1592;DHT22;789;51.612;7.510;2023-04-25T14:52:32;13.90;1.00
1592;DHT22;789;51.612;7.510;2023-04-25T14:55:01;13.70;1.00
1592;DHT22;789;51.612;7.510;2023-04-25T14:57:30;13.40;1.00
1592;DHT22;789;51.612;7.510;2023-04-25T14:59:58;13.00;1.00
1592;DHT22;789;51.612;7.510;2023-04-25T15:02:27;12.70;1.00
1592;DHT22;789;51.612;7.510;2023-04-25T15:04:54;12.40;1.00
1592;DHT22;789;51.612;7.510;2023-04-25T15:07:21;12.10;1.00
1592;DHT22;789;51.612;7.510;2023-04-25T15:09:49;11.90;1.00
1592;DHT22;789;51.612;7.510;2023-04-25T15:12:17;11.70;1.00
1592;DHT22;789;51.612;7.510;2023-04-25T15:14:44;11.70;1.00
1592;DHT22;789;51.612;7.510;2023-04-25T15:17:13;11.70;1.00
1592;DHT22;789;51.612;7.510;2023-04-25T15:19:40;11.80;1.00
1592;DHT22;789;51.612;7.510;2023-04-25T15:22:07;12.00;1.00
1592;DHT22;789;51.612;7.510;2023-04-25T15:24:34;12.00;1.00
1592;DHT22;789;51.612;7.510;2023-04-25T15:27:01;12.10;1.00
1592;DHT22;789;51.612;7.510;2023-04-25T15:29:29;12.10;1.00
1592;DHT22;789;51.612;7.510;2023-04-25T15:31:56;12.10;1.00
1592;DHT22;789;51.612;7.510;2023-04-25T15:34:23;12.30;1.00
1592;DHT22;789;51.612;7.510;2023-04-25T15:36:51;12.50;1.00
1592;DHT22;789;51.612;7.510;2023-04-25T15:39:17;12.80;1.00
1592;DHT22;789;51.612;7.510;2023-04-25T15:41:44;12.80;1.00
1592;DHT22;789;51.612;7.510;2023-04-25T15:44:11;12.80;1.00
1592;DHT22;789;51.612;7.510;2023-04-25T15:46:40;12.70;1.00
1592;DHT22;789;51.612;7.510;2023-04-25T15:49:07;12.70;1.00
1592;DHT22;789;51.612;7.510;2023-04-25T15:51:34;12.70;1.00
1592;DHT22;789;51.612;7.510;2023-04-25T15:54:01;12.70;1.00
1592;DHT22;789;51.612;7.510;2023-04-25T15:56:28;12.60;1.00
1592;DHT22;789;51.612;7.510;2023-04-25T15:58:55;12.40;1.00
1592;DHT22;789;51.612;7.510;2023-04-25T16:01:22;12.40;1.00
1592;DHT22;789;51.612;7.510;2023-04-25T16:03:52;12.20;1.00
1592;DHT22;789;51.612;7.510;2023-04-25T16:06:19;12.00;1.00
1592;DHT22;789;51.612;7.510;2023-04-25T16:08:45;11.90;1.00
1592;DHT22;789;51.612;7.510;2023-04-25T16:11:12;11.90;1.00
1592;DHT22;789;51.612;7.510;2023-04-25T16:13:39;11.90;1.00
1592;DHT22;789;51.612;7.510;2023-04-25T16:16:07;11.80;1.00
1592;DHT22;789;51.612;7.510;2023-04-25T16:18:33;11.80;1.00
1592;DHT22;789;51.612;7.510;2023-04-25T16:21:02;11.80;1.00
1592;DHT22;789;51.612;7.510;2023-04-25T16:23:29;11.80;1.00
1592;DHT22;789;51.612;7.510;2023-04-25T16:25:56;11.70;1.00
1592;DHT22;789;51.612;7.510;2023-04-25T16:28:23;11.80;1.00
1592;DHT22;789;51.612;7.510;2023-04-25T16:30:50;11.90;1.00
1592;DHT22;789;51.612;7.510;2023-04-25T16:33:16;11.70;1.00
1592;DHT22;789;51.612;7.510;2023-04-25T16:35:43;11.70;1.00
1592;DHT22;789;51.612;7.510;2023-04-25T16:38:12;11.60;1.00
1592;DHT22;789;51.612;7.510;2023-04-25T16:40:41;11.60;1.00
1592;DHT22;789;51.612;7.510;2023-04-25T16:43:07;11.60;1.00
1592;DHT22;789;51.612;7.510;2023-04-25T16:45:34;11.60;1.00